This is the latest recevied weather packets stored in our database for station/object W0AKO. If no packets are shown the sender has not sent any weather packets the latest 1 day(s).
| Time | Temp. | Humidity | Pressure | Rain* | Wind** | Luminosity | Snow |
|---|---|---|---|---|---|---|---|
| 1778036615 | 20.56° C | 10% | 1011.3 hPa | 0 mm | 4.02 m/s, 267° | 0 W/m² | - |
| 1778036311 | 20.56° C | 10% | 1011 hPa | 0 mm | 4.02 m/s, 232° | 0 W/m² | - |
| 1778036007 | 20.56° C | 10% | 1010.9 hPa | 0 mm | 4.02 m/s, 237° | 0 W/m² | - |
| 1778035705 | 20.56° C | 10% | 1010.8 hPa | 0 mm | 3.13 m/s, 271° | 0 W/m² | - |
| 1778035401 | 20.56° C | 10% | 1010.9 hPa | 0 mm | 3.13 m/s, 222° | 0 W/m² | - |
| 1778035098 | 20.56° C | 10% | 1010.7 hPa | 0 mm | 3.13 m/s, 222° | 0 W/m² | - |
| 1778034795 | 20.56° C | 10% | 1010.7 hPa | 0 mm | 4.92 m/s, 217° | 0 W/m² | - |
| 1778034491 | 20.56° C | 10% | 1010.6 hPa | 0 mm | 4.92 m/s, 234° | 0 W/m² | - |
| 1778034189 | 20.56° C | 10% | 1010.7 hPa | 0 mm | 4.92 m/s, 185° | 3 W/m² | - |
| 1778033887 | 20.56° C | 10% | 1010.5 hPa | 0 mm | 5.36 m/s, 204° | 5 W/m² | - |
| 1778033584 | 20.56° C | 10% | 1010.6 hPa | 0 mm | 2.24 m/s, 228° | 7 W/m² | - |
| 1778033280 | 20.56° C | 10% | 1010.3 hPa | 0 mm | 4.92 m/s, 225° | 12 W/m² | - |
| 1778032978 | 21.11° C | 10% | 1010.4 hPa | 0 mm | 5.36 m/s, 233° | 14 W/m² | - |
| 1778032676 | 20.56° C | 10% | 1010.3 hPa | 0 mm | 4.47 m/s, 225° | 16 W/m² | - |
| 1778032374 | 21.11° C | 10% | 1010.2 hPa | 0 mm | 4.92 m/s, 201° | 19 W/m² | - |
| 1778032069 | 21.11° C | 10% | 1010.2 hPa | 0 mm | 4.02 m/s, 220° | 22 W/m² | - |
| 1778031766 | 21.11° C | 10% | 1009.9 hPa | 0 mm | 3.58 m/s, 226° | 33 W/m² | - |
| 1778031463 | 21.67° C | 10% | 1009.9 hPa | 0 mm | 3.58 m/s, 253° | 36 W/m² | - |
| 1778031160 | 21.11° C | 10% | 1009.9 hPa | 0 mm | 4.02 m/s, 210° | 32 W/m² | - |
| 1778030857 | 21.11° C | 10% | 1009.9 hPa | 0 mm | 4.92 m/s, 292° | 28 W/m² | - |
| 1778030554 | 21.67° C | 10% | 1009.6 hPa | 0 mm | 6.26 m/s, 238° | 39 W/m² | - |
| 1778030251 | 21.67° C | 10% | 1009.9 hPa | 0 mm | 4.92 m/s, 211° | 37 W/m² | - |
| 1778029947 | 21.67° C | 10% | 1010.1 hPa | 0 mm | 4.92 m/s, 239° | 38 W/m² | - |
| 1778029646 | 22.22° C | 10% | 1009.7 hPa | 0 mm | 3.58 m/s, 231° | 103 W/m² | - |
| 1778029343 | 22.22° C | 10% | 1009.7 hPa | 0 mm | 6.26 m/s, 248° | 95 W/m² | - |
* Rain latest hour (hover to see other rain measurements)
** Current wind speed in m/s (hover to see current wind gust speed)